sensor_id;sensor_type;location;lat;lon;timestamp;P1;durP1;ratioP1;P2;durP2;ratioP2
21181;SDS011;10749;46.296;7.524;2022-12-31T00:01:00;12.80;;;9.13;;
21181;SDS011;10749;46.296;7.524;2022-12-31T00:03:26;11.70;;;9.00;;
21181;SDS011;10749;46.296;7.524;2022-12-31T00:05:51;11.20;;;8.53;;
21181;SDS011;10749;46.296;7.524;2022-12-31T00:08:16;11.53;;;8.20;;
21181;SDS011;10749;46.296;7.524;2022-12-31T00:10:41;9.53;;;7.80;;
21181;SDS011;10749;46.296;7.524;2022-12-31T00:13:08;10.00;;;7.70;;
21181;SDS011;10749;46.296;7.524;2022-12-31T00:15:34;11.40;;;8.13;;
21181;SDS011;10749;46.296;7.524;2022-12-31T00:17:59;8.27;;;6.60;;
21181;SDS011;10749;46.296;7.524;2022-12-31T00:20:25;8.63;;;6.77;;
21181;SDS011;10749;46.296;7.524;2022-12-31T00:22:50;8.27;;;5.93;;
21181;SDS011;10749;46.296;7.524;2022-12-31T00:25:16;8.13;;;5.70;;
21181;SDS011;10749;46.296;7.524;2022-12-31T00:27:41;8.40;;;6.23;;
21181;SDS011;10749;46.296;7.524;2022-12-31T00:30:06;10.07;;;6.83;;
21181;SDS011;10749;46.296;7.524;2022-12-31T00:32:32;8.90;;;5.93;;
21181;SDS011;10749;46.296;7.524;2022-12-31T00:34:58;7.30;;;5.70;;
21181;SDS011;10749;46.296;7.524;2022-12-31T00:37:23;8.17;;;6.27;;
21181;SDS011;10749;46.296;7.524;2022-12-31T00:39:49;8.13;;;6.37;;
21181;SDS011;10749;46.296;7.524;2022-12-31T00:42:14;9.03;;;6.23;;
21181;SDS011;10749;46.296;7.524;2022-12-31T00:44:39;7.07;;;5.70;;
21181;SDS011;10749;46.296;7.524;2022-12-31T00:47:04;8.90;;;6.27;;
21181;SDS011;10749;46.296;7.524;2022-12-31T00:49:30;8.33;;;6.23;;
21181;SDS011;10749;46.296;7.524;2022-12-31T00:51:55;7.03;;;5.17;;
21181;SDS011;10749;46.296;7.524;2022-12-31T00:54:20;6.33;;;5.63;;
21181;SDS011;10749;46.296;7.524;2022-12-31T00:56:46;6.27;;;5.13;;
21181;SDS011;10749;46.296;7.524;2022-12-31T00:59:11;7.23;;;5.77;;
21181;SDS011;10749;46.296;7.524;2022-12-31T01:01:37;7.67;;;5.60;;
21181;SDS011;10749;46.296;7.524;2022-12-31T01:04:04;6.73;;;5.47;;
21181;SDS011;10749;46.296;7.524;2022-12-31T01:06:32;6.87;;;5.17;;
21181;SDS011;10749;46.296;7.524;2022-12-31T01:08:58;7.30;;;5.33;;
21181;SDS011;10749;46.296;7.524;2022-12-31T01:11:24;6.37;;;5.40;;
21181;SDS011;10749;46.296;7.524;2022-12-31T01:13:57;6.53;;;4.83;;
21181;SDS011;10749;46.296;7.524;2022-12-31T01:16:29;6.67;;;5.43;;
21181;SDS011;10749;46.296;7.524;2022-12-31T01:18:57;6.50;;;4.77;;
21181;SDS011;10749;46.296;7.524;2022-12-31T01:21:24;7.93;;;4.63;;
21181;SDS011;10749;46.296;7.524;2022-12-31T01:23:49;5.17;;;4.60;;
21181;SDS011;10749;46.296;7.524;2022-12-31T01:26:15;5.70;;;4.27;;
21181;SDS011;10749;46.296;7.524;2022-12-31T01:28:42;6.10;;;4.60;;
21181;SDS011;10749;46.296;7.524;2022-12-31T01:31:09;7.23;;;4.97;;
21181;SDS011;10749;46.296;7.524;2022-12-31T01:33:36;5.83;;;4.83;;
21181;SDS011;10749;46.296;7.524;2022-12-31T01:36:03;6.37;;;4.37;;
21181;SDS011;10749;46.296;7.524;2022-12-31T01:38:39;5.87;;;4.43;;
21181;SDS011;10749;46.296;7.524;2022-12-31T01:41:06;5.50;;;4.00;;
21181;SDS011;10749;46.296;7.524;2022-12-31T01:43:42;4.50;;;3.87;;
21181;SDS011;10749;46.296;7.524;2022-12-31T01:46:22;5.23;;;3.90;;
21181;SDS011;10749;46.296;7.524;2022-12-31T01:48:52;6.30;;;4.00;;
21181;SDS011;10749;46.296;7.524;2022-12-31T01:51:20;4.13;;;3.43;;
21181;SDS011;10749;46.296;7.524;2022-12-31T01:53:46;3.80;;;3.13;;
21181;SDS011;10749;46.296;7.524;2022-12-31T01:56:12;4.40;;;3.47;;
21181;SDS011;10749;46.296;7.524;2022-12-31T01:58:42;4.00;;;3.53;;
21181;SDS011;10749;46.296;7.524;2022-12-31T02:01:10;4.80;;;3.57;;
21181;SDS011;10749;46.296;7.524;2022-12-31T02:03:41;4.47;;;3.20;;
21181;SDS011;10749;46.296;7.524;2022-12-31T02:08:42;3.83;;;2.90;;
21181;SDS011;10749;46.296;7.524;2022-12-31T02:11:19;3.60;;;3.20;;
21181;SDS011;10749;46.296;7.524;2022-12-31T02:13:47;4.50;;;2.93;;
21181;SDS011;10749;46.296;7.524;2022-12-31T02:16:16;4.37;;;3.20;;
21181;SDS011;10749;46.296;7.524;2022-12-31T02:19:06;4.40;;;3.57;;
21181;SDS011;10749;46.296;7.524;2022-12-31T02:32:17;8.37;;;5.27;;
21181;SDS011;10749;46.296;7.524;2022-12-31T02:34:54;6.37;;;5.50;;
21181;SDS011;10749;46.296;7.524;2022-12-31T02:37:24;7.53;;;5.63;;
21181;SDS011;10749;46.296;7.524;2022-12-31T02:39:54;7.17;;;5.57;;
21181;SDS011;10749;46.296;7.524;2022-12-31T02:42:20;7.13;;;5.17;;
21181;SDS011;10749;46.296;7.524;2022-12-31T02:44:45;5.80;;;5.17;;
21181;SDS011;10749;46.296;7.524;2022-12-31T02:55:26;6.80;;;5.27;;
21181;SDS011;10749;46.296;7.524;2022-12-31T02:58:11;7.43;;;5.50;;
21181;SDS011;10749;46.296;7.524;2022-12-31T03:00:45;7.03;;;5.23;;
21181;SDS011;10749;46.296;7.524;2022-12-31T03:03:33;7.33;;;4.97;;
21181;SDS011;10749;46.296;7.524;2022-12-31T03:06:01;6.30;;;5.10;;
21181;SDS011;10749;46.296;7.524;2022-12-31T03:08:28;5.87;;;4.57;;
21181;SDS011;10749;46.296;7.524;2022-12-31T03:10:54;4.30;;;3.23;;
21181;SDS011;10749;46.296;7.524;2022-12-31T03:13:21;3.20;;;2.47;;
21181;SDS011;10749;46.296;7.524;2022-12-31T03:15:47;3.10;;;2.70;;
21181;SDS011;10749;46.296;7.524;2022-12-31T03:18:14;3.27;;;2.70;;
21181;SDS011;10749;46.296;7.524;2022-12-31T03:20:45;4.10;;;2.60;;
21181;SDS011;10749;46.296;7.524;2022-12-31T03:23:35;4.33;;;2.90;;
21181;SDS011;10749;46.296;7.524;2022-12-31T03:26:03;4.00;;;2.73;;
21181;SDS011;10749;46.296;7.524;2022-12-31T03:28:37;3.43;;;3.00;;
21181;SDS011;10749;46.296;7.524;2022-12-31T03:31:05;3.83;;;3.00;;
21181;SDS011;10749;46.296;7.524;2022-12-31T03:33:32;5.00;;;3.60;;
21181;SDS011;10749;46.296;7.524;2022-12-31T03:36:02;4.30;;;3.30;;
21181;SDS011;10749;46.296;7.524;2022-12-31T03:38:28;3.80;;;3.30;;
21181;SDS011;10749;46.296;7.524;2022-12-31T03:40:54;5.17;;;4.00;;
21181;SDS011;10749;46.296;7.524;2022-12-31T03:43:19;5.87;;;4.00;;
21181;SDS011;10749;46.296;7.524;2022-12-31T03:45:48;4.40;;;3.43;;
21181;SDS011;10749;46.296;7.524;2022-12-31T03:48:15;3.87;;;3.43;;
21181;SDS011;10749;46.296;7.524;2022-12-31T03:50:41;3.50;;;2.73;;
21181;SDS011;10749;46.296;7.524;2022-12-31T03:53:06;2.87;;;2.20;;
21181;SDS011;10749;46.296;7.524;2022-12-31T03:55:32;4.03;;;2.23;;
21181;SDS011;10749;46.296;7.524;2022-12-31T03:57:57;3.77;;;2.77;;
21181;SDS011;10749;46.296;7.524;2022-12-31T04:00:22;3.20;;;2.70;;
21181;SDS011;10749;46.296;7.524;2022-12-31T04:02:48;3.30;;;2.57;;
21181;SDS011;10749;46.296;7.524;2022-12-31T04:05:14;3.67;;;2.67;;
21181;SDS011;10749;46.296;7.524;2022-12-31T04:07:40;4.80;;;2.97;;
21181;SDS011;10749;46.296;7.524;2022-12-31T04:10:07;3.80;;;3.10;;
21181;SDS011;10749;46.296;7.524;2022-12-31T04:12:33;3.37;;;2.70;;
21181;SDS011;10749;46.296;7.524;2022-12-31T04:14:59;4.37;;;3.20;;
21181;SDS011;10749;46.296;7.524;2022-12-31T04:17:24;3.70;;;3.07;;
21181;SDS011;10749;46.296;7.524;2022-12-31T04:19:50;4.63;;;3.30;;
21181;SDS011;10749;46.296;7.524;2022-12-31T04:22:15;3.90;;;2.97;;
21181;SDS011;10749;46.296;7.524;2022-12-31T04:24:41;3.63;;;3.23;;
21181;SDS011;10749;46.296;7.524;2022-12-31T04:27:07;3.30;;;2.90;;
21181;SDS011;10749;46.296;7.524;2022-12-31T04:29:33;4.70;;;3.30;;
21181;SDS011;10749;46.296;7.524;2022-12-31T04:31:59;4.10;;;3.03;;
21181;SDS011;10749;46.296;7.524;2022-12-31T04:34:24;4.03;;;2.90;;
21181;SDS011;10749;46.296;7.524;2022-12-31T04:36:50;4.70;;;3.30;;
21181;SDS011;10749;46.296;7.524;2022-12-31T04:39:15;4.20;;;3.10;;
21181;SDS011;10749;46.296;7.524;2022-12-31T04:41:40;3.87;;;3.00;;
21181;SDS011;10749;46.296;7.524;2022-12-31T04:44:06;3.33;;;3.00;;
21181;SDS011;10749;46.296;7.524;2022-12-31T04:46:31;4.23;;;3.03;;
21181;SDS011;10749;46.296;7.524;2022-12-31T04:48:59;3.53;;;2.80;;
21181;SDS011;10749;46.296;7.524;2022-12-31T04:51:25;5.17;;;2.70;;
21181;SDS011;10749;46.296;7.524;2022-12-31T04:53:51;2.97;;;2.50;;
21181;SDS011;10749;46.296;7.524;2022-12-31T04:56:17;3.83;;;2.63;;
21181;SDS011;10749;46.296;7.524;2022-12-31T04:58:43;3.37;;;2.83;;
21181;SDS011;10749;46.296;7.524;2022-12-31T05:01:08;3.23;;;2.27;;
21181;SDS011;10749;46.296;7.524;2022-12-31T05:03:34;3.37;;;2.20;;
21181;SDS011;10749;46.296;7.524;2022-12-31T05:06:01;2.30;;;1.90;;
21181;SDS011;10749;46.296;7.524;2022-12-31T05:08:28;2.30;;;1.80;;
21181;SDS011;10749;46.296;7.524;2022-12-31T05:10:54;2.83;;;2.00;;
21181;SDS011;10749;46.296;7.524;2022-12-31T05:13:19;3.43;;;2.10;;
21181;SDS011;10749;46.296;7.524;2022-12-31T05:15:45;3.03;;;2.53;;
21181;SDS011;10749;46.296;7.524;2022-12-31T05:18:11;2.67;;;2.20;;
21181;SDS011;10749;46.296;7.524;2022-12-31T05:20:37;3.50;;;2.83;;
21181;SDS011;10749;46.296;7.524;2022-12-31T05:23:02;3.67;;;2.60;;
21181;SDS011;10749;46.296;7.524;2022-12-31T05:25:28;3.83;;;2.77;;
21181;SDS011;10749;46.296;7.524;2022-12-31T05:27:53;3.63;;;2.57;;
21181;SDS011;10749;46.296;7.524;2022-12-31T05:30:18;3.10;;;2.60;;
21181;SDS011;10749;46.296;7.524;2022-12-31T05:32:47;4.20;;;2.90;;
21181;SDS011;10749;46.296;7.524;2022-12-31T05:35:12;3.27;;;2.67;;
21181;SDS011;10749;46.296;7.524;2022-12-31T05:37:38;3.53;;;2.70;;
21181;SDS011;10749;46.296;7.524;2022-12-31T05:40:03;4.33;;;2.53;;
21181;SDS011;10749;46.296;7.524;2022-12-31T05:42:29;3.30;;;2.90;;
21181;SDS011;10749;46.296;7.524;2022-12-31T05:44:55;4.13;;;2.90;;
21181;SDS011;10749;46.296;7.524;2022-12-31T05:47:20;3.10;;;2.70;;
21181;SDS011;10749;46.296;7.524;2022-12-31T05:49:46;3.90;;;2.87;;
21181;SDS011;10749;46.296;7.524;2022-12-31T05:52:11;3.40;;;2.70;;
21181;SDS011;10749;46.296;7.524;2022-12-31T05:54:36;4.00;;;3.07;;
21181;SDS011;10749;46.296;7.524;2022-12-31T05:57:02;3.97;;;3.10;;
21181;SDS011;10749;46.296;7.524;2022-12-31T05:59:28;3.87;;;3.07;;
21181;SDS011;10749;46.296;7.524;2022-12-31T06:01:54;7.03;;;2.47;;
21181;SDS011;10749;46.296;7.524;2022-12-31T06:04:19;4.47;;;2.90;;
21181;SDS011;10749;46.296;7.524;2022-12-31T06:06:45;3.77;;;2.80;;
21181;SDS011;10749;46.296;7.524;2022-12-31T06:09:10;4.90;;;3.50;;
21181;SDS011;10749;46.296;7.524;2022-12-31T06:11:35;3.53;;;2.90;;
21181;SDS011;10749;46.296;7.524;2022-12-31T06:14:01;3.93;;;2.87;;
21181;SDS011;10749;46.296;7.524;2022-12-31T06:16:26;4.40;;;3.03;;
21181;SDS011;10749;46.296;7.524;2022-12-31T06:18:52;3.67;;;3.03;;
21181;SDS011;10749;46.296;7.524;2022-12-31T06:21:18;3.57;;;2.87;;
21181;SDS011;10749;46.296;7.524;2022-12-31T06:23:45;4.53;;;3.00;;
21181;SDS011;10749;46.296;7.524;2022-12-31T06:26:10;3.67;;;2.90;;
21181;SDS011;10749;46.296;7.524;2022-12-31T06:28:35;3.40;;;2.90;;
21181;SDS011;10749;46.296;7.524;2022-12-31T06:31:02;3.10;;;2.80;;
21181;SDS011;10749;46.296;7.524;2022-12-31T06:33:28;3.70;;;2.80;;
21181;SDS011;10749;46.296;7.524;2022-12-31T06:35:54;3.73;;;2.60;;
21181;SDS011;10749;46.296;7.524;2022-12-31T06:38:24;3.60;;;2.70;;
21181;SDS011;10749;46.296;7.524;2022-12-31T06:40:50;4.50;;;2.97;;
21181;SDS011;10749;46.296;7.524;2022-12-31T06:43:16;5.93;;;3.03;;
21181;SDS011;10749;46.296;7.524;2022-12-31T06:45:42;3.60;;;2.43;;
21181;SDS011;10749;46.296;7.524;2022-12-31T06:48:07;3.03;;;2.30;;
21181;SDS011;10749;46.296;7.524;2022-12-31T06:50:32;3.20;;;2.60;;
21181;SDS011;10749;46.296;7.524;2022-12-31T06:52:58;3.57;;;2.20;;
21181;SDS011;10749;46.296;7.524;2022-12-31T06:55:23;3.00;;;2.00;;
21181;SDS011;10749;46.296;7.524;2022-12-31T06:57:49;2.37;;;1.90;;
21181;SDS011;10749;46.296;7.524;2022-12-31T07:00:14;4.87;;;2.20;;
21181;SDS011;10749;46.296;7.524;2022-12-31T07:05:51;3.17;;;2.20;;
21181;SDS011;10749;46.296;7.524;2022-12-31T07:08:39;2.20;;;1.70;;
21181;SDS011;10749;46.296;7.524;2022-12-31T07:11:34;1.43;;;1.23;;
21181;SDS011;10749;46.296;7.524;2022-12-31T07:21:48;4.47;;;3.20;;
21181;SDS011;10749;46.296;7.524;2022-12-31T07:24:17;4.20;;;3.37;;
21181;SDS011;10749;46.296;7.524;2022-12-31T07:32:23;7.63;;;3.20;;
21181;SDS011;10749;46.296;7.524;2022-12-31T07:43:27;4.27;;;2.93;;
21181;SDS011;10749;46.296;7.524;2022-12-31T07:49:12;5.67;;;3.63;;
21181;SDS011;10749;46.296;7.524;2022-12-31T07:51:38;5.73;;;3.40;;
21181;SDS011;10749;46.296;7.524;2022-12-31T07:54:04;4.13;;;2.90;;
21181;SDS011;10749;46.296;7.524;2022-12-31T07:56:30;4.60;;;3.00;;
21181;SDS011;10749;46.296;7.524;2022-12-31T08:02:12;3.30;;;2.40;;
21181;SDS011;10749;46.296;7.524;2022-12-31T08:04:59;3.13;;;2.27;;
21181;SDS011;10749;46.296;7.524;2022-12-31T08:13:23;4.87;;;3.03;;
21181;SDS011;10749;46.296;7.524;2022-12-31T08:15:49;3.47;;;2.93;;
21181;SDS011;10749;46.296;7.524;2022-12-31T08:18:15;3.70;;;2.90;;
21181;SDS011;10749;46.296;7.524;2022-12-31T08:21:28;4.17;;;3.00;;
21181;SDS011;10749;46.296;7.524;2022-12-31T08:29:40;4.53;;;2.97;;
21181;SDS011;10749;46.296;7.524;2022-12-31T08:34:49;4.00;;;2.73;;
21181;SDS011;10749;46.296;7.524;2022-12-31T08:37:42;3.73;;;2.70;;
21181;SDS011;10749;46.296;7.524;2022-12-31T08:40:18;3.83;;;3.00;;
21181;SDS011;10749;46.296;7.524;2022-12-31T08:43:00;5.73;;;3.27;;
21181;SDS011;10749;46.296;7.524;2022-12-31T08:45:45;3.70;;;2.53;;
21181;SDS011;10749;46.296;7.524;2022-12-31T08:48:24;2.70;;;2.40;;
21181;SDS011;10749;46.296;7.524;2022-12-31T08:50:56;4.43;;;3.50;;
21181;SDS011;10749;46.296;7.524;2022-12-31T08:53:22;4.47;;;3.37;;
21181;SDS011;10749;46.296;7.524;2022-12-31T08:55:48;3.37;;;2.77;;
21181;SDS011;10749;46.296;7.524;2022-12-31T09:01:12;3.63;;;2.60;;
21181;SDS011;10749;46.296;7.524;2022-12-31T09:06:33;3.63;;;2.77;;
21181;SDS011;10749;46.296;7.524;2022-12-31T09:19:58;2.73;;;2.30;;
21181;SDS011;10749;46.296;7.524;2022-12-31T09:22:24;3.00;;;2.30;;
21181;SDS011;10749;46.296;7.524;2022-12-31T09:24:49;2.50;;;2.27;;
21181;SDS011;10749;46.296;7.524;2022-12-31T09:27:37;6.63;;;2.30;;
21181;SDS011;10749;46.296;7.524;2022-12-31T09:30:09;4.40;;;2.30;;
21181;SDS011;10749;46.296;7.524;2022-12-31T09:38:02;4.00;;;2.50;;
21181;SDS011;10749;46.296;7.524;2022-12-31T10:00:00;2.47;;;2.27;;
21181;SDS011;10749;46.296;7.524;2022-12-31T10:05:55;4.00;;;2.60;;
21181;SDS011;10749;46.296;7.524;2022-12-31T10:14:15;3.33;;;2.33;;
21181;SDS011;10749;46.296;7.524;2022-12-31T10:28:29;3.70;;;2.20;;
21181;SDS011;10749;46.296;7.524;2022-12-31T10:31:23;4.13;;;2.63;;
21181;SDS011;10749;46.296;7.524;2022-12-31T10:34:01;3.87;;;2.83;;
21181;SDS011;10749;46.296;7.524;2022-12-31T10:36:45;3.30;;;2.10;;
21181;SDS011;10749;46.296;7.524;2022-12-31T10:39:21;3.37;;;2.37;;
21181;SDS011;10749;46.296;7.524;2022-12-31T10:56:07;2.70;;;1.50;;
21181;SDS011;10749;46.296;7.524;2022-12-31T11:05:48;3.73;;;1.90;;
21181;SDS011;10749;46.296;7.524;2022-12-31T11:22:19;3.07;;;2.37;;
21181;SDS011;10749;46.296;7.524;2022-12-31T11:35:36;4.43;;;2.40;;
21181;SDS011;10749;46.296;7.524;2022-12-31T11:38:22;3.67;;;2.60;;
21181;SDS011;10749;46.296;7.524;2022-12-31T11:49:52;2.40;;;2.00;;
21181;SDS011;10749;46.296;7.524;2022-12-31T11:55:41;2.63;;;1.47;;
21181;SDS011;10749;46.296;7.524;2022-12-31T11:58:11;1.40;;;1.23;;
21181;SDS011;10749;46.296;7.524;2022-12-31T12:00:43;1.77;;;1.30;;
21181;SDS011;10749;46.296;7.524;2022-12-31T12:03:30;2.10;;;1.53;;
21181;SDS011;10749;46.296;7.524;2022-12-31T12:05:56;1.97;;;1.50;;
21181;SDS011;10749;46.296;7.524;2022-12-31T12:08:23;2.97;;;2.10;;
21181;SDS011;10749;46.296;7.524;2022-12-31T12:10:51;2.47;;;1.90;;
21181;SDS011;10749;46.296;7.524;2022-12-31T12:13:22;2.00;;;1.80;;
21181;SDS011;10749;46.296;7.524;2022-12-31T12:15:56;3.00;;;1.80;;
21181;SDS011;10749;46.296;7.524;2022-12-31T12:21:14;3.33;;;1.77;;
21181;SDS011;10749;46.296;7.524;2022-12-31T12:23:53;3.20;;;2.10;;
21181;SDS011;10749;46.296;7.524;2022-12-31T12:26:24;2.20;;;2.00;;
21181;SDS011;10749;46.296;7.524;2022-12-31T12:28:52;3.03;;;1.87;;
21181;SDS011;10749;46.296;7.524;2022-12-31T12:31:22;3.27;;;2.00;;
21181;SDS011;10749;46.296;7.524;2022-12-31T12:33:49;3.20;;;2.30;;
21181;SDS011;10749;46.296;7.524;2022-12-31T12:36:16;2.93;;;2.03;;
21181;SDS011;10749;46.296;7.524;2022-12-31T12:38:42;3.47;;;2.20;;
21181;SDS011;10749;46.296;7.524;2022-12-31T12:41:18;2.90;;;2.40;;
21181;SDS011;10749;46.296;7.524;2022-12-31T12:43:49;3.87;;;2.40;;
21181;SDS011;10749;46.296;7.524;2022-12-31T12:46:30;2.53;;;2.20;;
21181;SDS011;10749;46.296;7.524;2022-12-31T12:48:59;5.10;;;2.30;;
21181;SDS011;10749;46.296;7.524;2022-12-31T13:05:13;3.70;;;2.73;;
21181;SDS011;10749;46.296;7.524;2022-12-31T13:07:55;4.43;;;2.53;;
21181;SDS011;10749;46.296;7.524;2022-12-31T13:13:17;2.87;;;2.50;;
21181;SDS011;10749;46.296;7.524;2022-12-31T13:15:56;3.20;;;2.40;;
21181;SDS011;10749;46.296;7.524;2022-12-31T13:21:38;2.77;;;2.23;;
21181;SDS011;10749;46.296;7.524;2022-12-31T13:26:58;3.03;;;2.07;;
21181;SDS011;10749;46.296;7.524;2022-12-31T13:29:33;4.37;;;2.30;;
21181;SDS011;10749;46.296;7.524;2022-12-31T13:32:01;4.40;;;2.57;;
21181;SDS011;10749;46.296;7.524;2022-12-31T13:34:30;2.93;;;2.37;;
21181;SDS011;10749;46.296;7.524;2022-12-31T13:37:01;2.67;;;2.30;;
21181;SDS011;10749;46.296;7.524;2022-12-31T13:39:31;2.37;;;2.13;;
21181;SDS011;10749;46.296;7.524;2022-12-31T13:42:15;3.93;;;2.97;;
21181;SDS011;10749;46.296;7.524;2022-12-31T13:44:58;2.80;;;2.30;;
21181;SDS011;10749;46.296;7.524;2022-12-31T13:47:27;2.97;;;2.13;;
21181;SDS011;10749;46.296;7.524;2022-12-31T13:49:58;3.50;;;2.47;;
21181;SDS011;10749;46.296;7.524;2022-12-31T13:52:39;4.67;;;2.53;;
21181;SDS011;10749;46.296;7.524;2022-12-31T14:00:49;4.60;;;2.90;;
21181;SDS011;10749;46.296;7.524;2022-12-31T14:06:21;3.83;;;2.57;;
21181;SDS011;10749;46.296;7.524;2022-12-31T14:09:05;6.20;;;3.30;;
21181;SDS011;10749;46.296;7.524;2022-12-31T14:16:56;4.10;;;3.10;;
21181;SDS011;10749;46.296;7.524;2022-12-31T14:22:33;5.53;;;3.20;;
21181;SDS011;10749;46.296;7.524;2022-12-31T14:25:13;5.90;;;3.23;;
21181;SDS011;10749;46.296;7.524;2022-12-31T14:28:00;5.37;;;3.90;;
21181;SDS011;10749;46.296;7.524;2022-12-31T14:30:29;4.27;;;3.57;;
21181;SDS011;10749;46.296;7.524;2022-12-31T14:42:23;7.10;;;3.23;;
21181;SDS011;10749;46.296;7.524;2022-12-31T14:45:05;3.87;;;2.50;;
21181;SDS011;10749;46.296;7.524;2022-12-31T14:47:49;3.53;;;2.90;;
21181;SDS011;10749;46.296;7.524;2022-12-31T14:50:24;5.83;;;3.17;;
21181;SDS011;10749;46.296;7.524;2022-12-31T14:52:52;3.80;;;2.80;;
21181;SDS011;10749;46.296;7.524;2022-12-31T14:55:30;5.20;;;3.23;;
21181;SDS011;10749;46.296;7.524;2022-12-31T15:03:39;6.47;;;4.03;;
21181;SDS011;10749;46.296;7.524;2022-12-31T15:22:51;7.57;;;5.60;;
21181;SDS011;10749;46.296;7.524;2022-12-31T15:25:23;7.10;;;5.23;;
21181;SDS011;10749;46.296;7.524;2022-12-31T15:27:52;7.43;;;4.77;;
21181;SDS011;10749;46.296;7.524;2022-12-31T15:33:18;8.30;;;4.40;;
21181;SDS011;10749;46.296;7.524;2022-12-31T15:36:18;6.50;;;3.80;;
21181;SDS011;10749;46.296;7.524;2022-12-31T15:38:46;6.50;;;4.47;;
21181;SDS011;10749;46.296;7.524;2022-12-31T15:43:46;7.10;;;4.63;;
21181;SDS011;10749;46.296;7.524;2022-12-31T15:46:16;5.73;;;4.50;;
21181;SDS011;10749;46.296;7.524;2022-12-31T15:48:45;6.50;;;4.50;;
21181;SDS011;10749;46.296;7.524;2022-12-31T15:51:17;16.23;;;4.93;;
21181;SDS011;10749;46.296;7.524;2022-12-31T15:53:47;6.37;;;3.97;;
21181;SDS011;10749;46.296;7.524;2022-12-31T15:56:59;6.50;;;4.27;;
21181;SDS011;10749;46.296;7.524;2022-12-31T15:59:12;4.33;;;3.60;;
21181;SDS011;10749;46.296;7.524;2022-12-31T16:01:40;6.13;;;3.13;;
21181;SDS011;10749;46.296;7.524;2022-12-31T16:04:13;3.50;;;2.43;;
21181;SDS011;10749;46.296;7.524;2022-12-31T16:06:42;2.60;;;2.13;;
21181;SDS011;10749;46.296;7.524;2022-12-31T16:09:15;3.07;;;2.00;;
21181;SDS011;10749;46.296;7.524;2022-12-31T16:11:48;4.03;;;2.10;;
21181;SDS011;10749;46.296;7.524;2022-12-31T16:14:16;3.97;;;2.27;;
21181;SDS011;10749;46.296;7.524;2022-12-31T16:16:52;3.60;;;2.40;;
21181;SDS011;10749;46.296;7.524;2022-12-31T16:19:30;3.63;;;2.20;;
21181;SDS011;10749;46.296;7.524;2022-12-31T16:22:13;4.67;;;2.43;;
21181;SDS011;10749;46.296;7.524;2022-12-31T16:24:40;6.93;;;3.50;;
21181;SDS011;10749;46.296;7.524;2022-12-31T16:27:07;6.83;;;4.67;;
21181;SDS011;10749;46.296;7.524;2022-12-31T16:29:40;8.20;;;4.90;;
21181;SDS011;10749;46.296;7.524;2022-12-31T16:32:17;6.80;;;4.63;;
21181;SDS011;10749;46.296;7.524;2022-12-31T16:34:43;7.57;;;5.10;;
21181;SDS011;10749;46.296;7.524;2022-12-31T16:37:13;8.37;;;6.20;;
21181;SDS011;10749;46.296;7.524;2022-12-31T16:42:20;6.17;;;4.00;;
21181;SDS011;10749;46.296;7.524;2022-12-31T16:44:47;5.87;;;4.10;;
21181;SDS011;10749;46.296;7.524;2022-12-31T16:47:18;4.87;;;2.80;;
21181;SDS011;10749;46.296;7.524;2022-12-31T16:49:54;4.63;;;3.00;;
21181;SDS011;10749;46.296;7.524;2022-12-31T16:52:31;4.20;;;3.27;;
21181;SDS011;10749;46.296;7.524;2022-12-31T16:54:59;5.10;;;3.60;;
21181;SDS011;10749;46.296;7.524;2022-12-31T16:57:26;6.33;;;3.60;;
21181;SDS011;10749;46.296;7.524;2022-12-31T16:59:54;5.20;;;4.20;;
21181;SDS011;10749;46.296;7.524;2022-12-31T17:02:26;6.20;;;4.70;;
21181;SDS011;10749;46.296;7.524;2022-12-31T17:04:59;5.50;;;4.17;;
21181;SDS011;10749;46.296;7.524;2022-12-31T17:07:26;5.70;;;4.43;;
21181;SDS011;10749;46.296;7.524;2022-12-31T17:10:12;8.67;;;5.07;;
21181;SDS011;10749;46.296;7.524;2022-12-31T17:12:44;6.73;;;5.20;;
21181;SDS011;10749;46.296;7.524;2022-12-31T17:15:20;7.87;;;3.83;;
21181;SDS011;10749;46.296;7.524;2022-12-31T17:17:50;7.60;;;4.00;;
21181;SDS011;10749;46.296;7.524;2022-12-31T17:20:24;7.33;;;4.53;;
21181;SDS011;10749;46.296;7.524;2022-12-31T17:22:57;6.03;;;4.07;;
21181;SDS011;10749;46.296;7.524;2022-12-31T17:25:28;8.90;;;5.27;;
21181;SDS011;10749;46.296;7.524;2022-12-31T17:33:02;7.03;;;4.20;;
21181;SDS011;10749;46.296;7.524;2022-12-31T17:35:29;7.50;;;3.57;;
21181;SDS011;10749;46.296;7.524;2022-12-31T17:40:47;6.83;;;4.80;;
21181;SDS011;10749;46.296;7.524;2022-12-31T17:43:15;7.87;;;5.50;;
21181;SDS011;10749;46.296;7.524;2022-12-31T17:45:43;8.07;;;4.80;;
21181;SDS011;10749;46.296;7.524;2022-12-31T17:48:15;6.90;;;4.37;;
21181;SDS011;10749;46.296;7.524;2022-12-31T17:50:45;5.63;;;4.23;;
21181;SDS011;10749;46.296;7.524;2022-12-31T17:53:18;5.77;;;3.50;;
21181;SDS011;10749;46.296;7.524;2022-12-31T17:55:44;3.50;;;2.73;;
21181;SDS011;10749;46.296;7.524;2022-12-31T17:58:21;3.70;;;2.77;;
21181;SDS011;10749;46.296;7.524;2022-12-31T18:00:51;4.20;;;2.97;;
21181;SDS011;10749;46.296;7.524;2022-12-31T18:03:17;4.37;;;3.77;;
21181;SDS011;10749;46.296;7.524;2022-12-31T18:05:42;3.43;;;2.63;;
21181;SDS011;10749;46.296;7.524;2022-12-31T18:08:07;3.57;;;2.67;;
21181;SDS011;10749;46.296;7.524;2022-12-31T18:10:34;3.37;;;2.33;;
21181;SDS011;10749;46.296;7.524;2022-12-31T18:13:04;4.47;;;2.60;;
21181;SDS011;10749;46.296;7.524;2022-12-31T18:15:32;5.03;;;2.90;;
21181;SDS011;10749;46.296;7.524;2022-12-31T18:17:57;3.80;;;3.00;;
21181;SDS011;10749;46.296;7.524;2022-12-31T18:20:23;3.40;;;2.87;;
21181;SDS011;10749;46.296;7.524;2022-12-31T18:22:50;5.10;;;3.10;;
21181;SDS011;10749;46.296;7.524;2022-12-31T18:25:17;5.03;;;3.13;;
21181;SDS011;10749;46.296;7.524;2022-12-31T18:27:45;6.40;;;5.40;;
21181;SDS011;10749;46.296;7.524;2022-12-31T18:30:11;10.93;;;7.47;;
21181;SDS011;10749;46.296;7.524;2022-12-31T18:32:37;20.80;;;14.00;;
21181;SDS011;10749;46.296;7.524;2022-12-31T18:35:05;20.73;;;14.93;;
21181;SDS011;10749;46.296;7.524;2022-12-31T18:37:39;15.57;;;9.50;;
21181;SDS011;10749;46.296;7.524;2022-12-31T18:40:05;10.27;;;6.63;;
21181;SDS011;10749;46.296;7.524;2022-12-31T18:42:30;12.47;;;5.57;;
21181;SDS011;10749;46.296;7.524;2022-12-31T18:44:56;7.70;;;4.30;;
21181;SDS011;10749;46.296;7.524;2022-12-31T18:47:21;7.40;;;4.27;;
21181;SDS011;10749;46.296;7.524;2022-12-31T18:49:49;5.73;;;4.47;;
21181;SDS011;10749;46.296;7.524;2022-12-31T18:52:16;6.03;;;4.33;;
21181;SDS011;10749;46.296;7.524;2022-12-31T18:54:46;5.87;;;4.17;;
21181;SDS011;10749;46.296;7.524;2022-12-31T18:57:12;6.33;;;4.80;;
21181;SDS011;10749;46.296;7.524;2022-12-31T18:59:38;6.97;;;4.87;;
21181;SDS011;10749;46.296;7.524;2022-12-31T19:02:04;8.30;;;5.30;;
21181;SDS011;10749;46.296;7.524;2022-12-31T19:04:35;6.50;;;4.77;;
21181;SDS011;10749;46.296;7.524;2022-12-31T19:07:00;6.87;;;5.40;;
21181;SDS011;10749;46.296;7.524;2022-12-31T19:09:26;5.97;;;4.80;;
21181;SDS011;10749;46.296;7.524;2022-12-31T19:11:51;5.30;;;4.10;;
21181;SDS011;10749;46.296;7.524;2022-12-31T19:14:17;5.30;;;4.10;;
21181;SDS011;10749;46.296;7.524;2022-12-31T19:16:45;7.10;;;4.17;;
21181;SDS011;10749;46.296;7.524;2022-12-31T19:19:11;6.00;;;4.20;;
21181;SDS011;10749;46.296;7.524;2022-12-31T19:21:37;5.63;;;4.13;;
21181;SDS011;10749;46.296;7.524;2022-12-31T19:24:02;5.30;;;3.90;;
21181;SDS011;10749;46.296;7.524;2022-12-31T19:26:34;5.67;;;3.43;;
21181;SDS011;10749;46.296;7.524;2022-12-31T19:28:59;3.73;;;2.80;;
21181;SDS011;10749;46.296;7.524;2022-12-31T19:31:25;4.27;;;2.77;;
21181;SDS011;10749;46.296;7.524;2022-12-31T19:33:50;6.10;;;3.50;;
21181;SDS011;10749;46.296;7.524;2022-12-31T19:36:16;5.07;;;3.53;;
21181;SDS011;10749;46.296;7.524;2022-12-31T19:38:44;5.30;;;3.30;;
21181;SDS011;10749;46.296;7.524;2022-12-31T19:41:19;6.60;;;3.90;;